Bialystok, Poland

3:48 PM CEST on August 20, 2014 (GMT +0200)
Grodno | Change Station
CLOSE
Current Station
Airport
Location: Grodno,
Elevation: 443 ft
Nearby Weather Stations

Elev 443 ft 53.60 °N, 24.06 °E | Updated 18 minutes ago

Mostly Cloudy
Mostly Cloudy
72 °F
Feels Like 72 °F
N
16
Wind Variable Wind from WSW
Gusts 22 mph

Today
High -- | Low -- °F
--% Chance of Precip.
Yesterday
High -- | Low -- °F
Precip. -- in
5:16 AM 7:44 PM
Waning Crescent, 21% visible
Pressure 29.86 in
Visibility 6.2 miles
Clouds Scattered Clouds 3300 ft
Mostly Cloudy 6600 ft
Dew Point 48 °F
Humidity 43%
Rainfall 0.00 in
Snow Depth Not available.
UV 2 out of 12
Pollen Not available.
Air Quality Not available.
Flu Activity Not available.
METAR UMMG 201330Z 24007G10MPS 9999 SCT033 BKN066 22/09 Q1011 R17/CLRD// NOSIG

More Conditions Fewer Conditions

Pressure 29.86 in
Visibility 6.2 miles
Clouds Scattered Clouds 3300 ft
Mostly Cloudy 6600 ft
Dew Point 48 °F
Humidity 43%
Rainfall 0.00 in
Snow Depth Not available.
UV 2 out of 12
Pollen Not available.
Air Quality Not available.
Flu Activity Not available.
METAR UMMG 201330Z 24007G10MPS 9999 SCT033 BKN066 22/09 Q1011 R17/CLRD// NOSIG

More Conditions Fewer Conditions

10-Day Weather Forecast

Almanac

Astronomy

Aug. 20, 2014 Rise Set
Actual Time 5:16 AM CEST 7:44 PM CEST
Civil Twilight 4:37 AM CEST 8:22 PM CEST
Nautical Twilight 3:48 AM CEST 9:11 PM CEST
Astronomical Twilight 2:49 AM CEST 10:09 PM CEST
Moon 12:25 AM CEST 4:29 PM CEST
Length of Visible Light 15h 44m
Length of Day
14h 27m
Tomorrow will be 3m 55s shorter.
Waning Crescent, 21% of the Moon is Illuminated
Today
Waning Crescent
Aug 25
New
Sep 2
First Quarter
Sep 8
Full
Sep 15
Last Quarter

Yesterday's Extremes

Country Highs Country Lows

Community

WunderPhotos

Upload Photos

1,745,630 photos uploaded!

WunderBlogs® & News

By Dr. Jeff Masters
Director of Meteorology, Weather Underground
By Kari Strenfel
Meteorologist, Weather Underground
By Christopher C. Burt
Weather Historian, Weather Underground
August 20, 2014
August 20, 2014
August 20, 2014

Nearby

Snow Depth

Not available.

Earthquake Activity

City Distance Mag. Time & Date
No recent earthquake activity has been reported nearby.
Minimum magnitude displayed is 2.5.

Coastal Water Temperatures

Place Temperature
No Stations Reporting

Nearby Weather Stations